• Join FlightAware (Why Join?)
  • Login
  • US Flag 
05:55AM EST


 

Airport Tracker/Info


-or-


 

Live Flight TrackerFlight Track Log ✈ N761P ✈ 2013年05月 7日 ✈ KBKL - KDET

Flight Track Log - Related Links

Times and Time Zones

All times are in EDT time to prevent confusion due to time zone crossing. See the N761P flight status page for this flight to view local times or setup timezone preferences in your user account.

Time Position Orientation Groundspeed Altitude Reporting Facility
EDT Latitude Longitude Course Direction KTS MPH feet Rate Location/Type
12:10AM 41.4833 -81.6947 246° West 97 112 1,900  Level Cleveland Center
12:11AM 41.4725 -81.7358 251° West 127 146 2,700 840 Climbing Cleveland Center
12:12AM 41.4764 -81.7858 276° West 123 142 3,600 600 Climbing Cleveland Center
12:13AM 41.4758 -81.8386 269° West 147 169 4,000 180 Climbing Cleveland Center
12:14AM 41.4772 -81.8994 272° West 165 190 4,000  Level Cleveland Center
12:15AM 41.4764 -81.9606 269° West 165 190 4,000  Level Cleveland Center
12:16AM 41.4548 -81.8361 246° West  Level FlightAware Approximate
12:16AM 41.4736 -82.0214 267° West 164 189 4,000  Level Cleveland Center
12:17AM 41.4747 -82.0825 271° West 165 190 4,000  Level Cleveland Center
12:18AM 41.4700 -82.1433 264° West 163 188 4,000  Level Cleveland Center
12:19AM 41.4647 -82.2042 263° West 163 188 4,000  Level Cleveland Center
12:20AM 41.4619 -82.2622 266° West 161 185 4,000  Level Cleveland Center
12:21AM 41.4569 -82.3231 264° West 163 188 4,000  Level Cleveland Center
12:22AM 41.4517 -82.3839 263° West 162 186 4,000  Level Cleveland Center
12:23AM 41.4486 -82.4447 266° West 162 186 4,000  Level Cleveland Center
12:24AM 41.4456 -82.5056 266° West 164 189 4,000  Level Cleveland Center
12:25AM 41.4528 -82.5667 279° West 168 193 4,000  Level Cleveland Center
12:26AM 41.4686 -82.6228 291° West 168 193 4,000  Level Cleveland Center
12:27AM 41.4781 -82.6811 282° West 168 193 4,000  Level Cleveland Center
12:28AM 41.4831 -82.7422 276° West 167 192 4,000  Level Cleveland Center
12:29AM 41.4797 -82.8033 266° West 161 185 4,000  Level Cleveland Center
12:31AM 41.5092 -82.8098 351° North  Level Estimated
12:38AM 41.6718 -82.8456 351° North  Level Estimated
12:39AM 41.6950 -82.8507 351° North  Level Estimated
12:40AM 41.7182 -82.8558 351° North  Level Estimated
12:41AM 41.7415 -82.8610 351° North  Level Estimated
12:42AM 41.7647 -82.8661 351° North  Level Estimated
12:43AM 41.7879 -82.8712 351° North  Level Estimated
12:44AM 41.8112 -82.8764 351° North  Level Estimated
12:45AM 41.8344 -82.8815 351° North  Level Estimated
12:46AM 41.8576 -82.8867 351° North  Level Estimated
12:47AM 41.8809 -82.8918 351° North  Level Estimated
12:48AM 41.9041 -82.8970 351° North  Level Estimated
12:49AM 41.9273 -82.9022 351° North  Level Estimated
12:50AM 41.9505 -82.9073 351° North  Level Estimated
12:51AM 41.9738 -82.9125 351° North  Level Estimated
12:52AM 41.9970 -82.9177 351° North  Level Estimated
12:53AM 42.0202 -82.9229 351° North  Level Estimated
12:54AM 42.0435 -82.9280 351° North  Level Estimated
12:55AM 42.0667 -82.9332 351° North  Level Estimated
12:56AM 42.0899 -82.9384 351° North  Level Estimated
12:57AM 42.1132 -82.9436 351° North  Level Estimated
12:58AM 42.1364 -82.9488 351° North  Level Estimated
12:59AM 42.1596 -82.9540 351° North  Level Estimated
01:00AM 42.1828 -82.9592 351° North  Level Estimated
01:01AM 42.2061 -82.9644 351° North  Level Estimated
01:02AM 42.2293 -82.9696 351° North  Level Estimated
01:03AM 42.2525 -82.9749 351° North  Level Estimated
01:04AM 42.2758 -82.9801 351° North  Level Estimated
01:05AM 42.2990 -82.9853 351° North  Level Estimated
01:06AM 42.3222 -82.9905 351° North  Level Estimated
01:07AM 42.3455 -82.9958 351° North  Level Estimated
01:08AM 42.3687 -83.0010 351° North  Level Estimated
01:09AM 42.3919 -83.0062 351° North  Level Estimated
01:10AM 42.4093 -83.0102 351° North  Level Estimated
01:11AM 42.4093 -83.0102 208° Southwest  Level Estimated
01:12AM 42.4093 -83.0102 208° Southwest  Level Estimated
01:13AM 42.4093 -83.0102 208° Southwest  Level Estimated
01:14AM 42.4093 -83.0102 208° Southwest  Level Estimated
01:15AM 42.4093 -83.0102 208° Southwest  Level Estimated
01:16AM 42.4093 -83.0102 208° Southwest  Level Estimated
01:17AM 42.4093 -83.0102 208° Southwest  Level Estimated
01:18AM 42.4093 -83.0102 208° Southwest  Level Estimated
01:19AM 42.4093 -83.0102 208° Southwest  Level Estimated
01:20AM 42.4093 -83.0102 208° Southwest  Level Estimated
01:21AM 42.4093 -83.0102 208° Southwest  Level Estimated
01:22AM 42.4093 -83.0102 208° Southwest  Level Estimated
01:23AM 42.4093 -83.0102 208° Southwest  Level Estimated
01:24AM 42.4093 -83.0102 208° Southwest  Level Estimated
01:25AM 42.4093 -83.0102 208° Southwest  Level Estimated
01:26AM 42.4093 -83.0102 208° Southwest  Level Estimated
01:27AM 42.4093 -83.0102 208° Southwest  Level Estimated
01:28AM 42.4093 -83.0102 208° Southwest  Level Estimated
01:29AM 42.4093 -83.0102 208° Southwest  Level Estimated
01:30AM 42.4093 -83.0102 208° Southwest  Level Estimated
01:31AM 42.4093 -83.0102 208° Southwest  Level Estimated
01:32AM 42.4093 -83.0102 208° Southwest  Level Estimated
01:33AM 42.4093 -83.0102 208° Southwest  Level Estimated
01:34AM 42.4093 -83.0102 208° Southwest  Level Estimated
01:35AM 42.4093 -83.0102 208° Southwest  Level Estimated
01:36AM 42.4093 -83.0102 208° Southwest  Level Estimated